sensor_id;sensor_type;location;lat;lon;timestamp;pressure;altitude;pressure_sealevel;temperature;humidity
9893;BME280;4985;49.092;8.542;2022-08-01T00:02:11;99326.97;;;24.97;39.67
9893;BME280;4985;49.092;8.542;2022-08-01T00:04:38;99330.19;;;24.94;39.79
9893;BME280;4985;49.092;8.542;2022-08-01T00:07:04;99328.25;;;24.89;39.87
9893;BME280;4985;49.092;8.542;2022-08-01T00:09:31;99325.78;;;24.83;40.10
9893;BME280;4985;49.092;8.542;2022-08-01T00:11:59;99331.91;;;24.78;40.27
9893;BME280;4985;49.092;8.542;2022-08-01T00:14:26;99330.09;;;24.84;40.12
9893;BME280;4985;49.092;8.542;2022-08-01T00:16:52;99335.84;;;24.92;40.00
9893;BME280;4985;49.092;8.542;2022-08-01T00:19:19;99329.94;;;24.95;40.12
9893;BME280;4985;49.092;8.542;2022-08-01T00:21:46;99330.19;;;24.94;40.03
9893;BME280;4985;49.092;8.542;2022-08-01T00:24:12;99332.47;;;24.80;40.26
9893;BME280;4985;49.092;8.542;2022-08-01T00:26:39;99333.03;;;24.82;40.29
9893;BME280;4985;49.092;8.542;2022-08-01T00:29:07;99340.31;;;24.82;40.23
9893;BME280;4985;49.092;8.542;2022-08-01T00:31:33;99345.37;;;24.78;40.36
9893;BME280;4985;49.092;8.542;2022-08-01T00:34:00;99344.91;;;24.86;40.16
9893;BME280;4985;49.092;8.542;2022-08-01T00:36:27;99345.53;;;24.93;40.06
9893;BME280;4985;49.092;8.542;2022-08-01T00:38:53;99346.03;;;24.90;40.17
9893;BME280;4985;49.092;8.542;2022-08-01T00:41:20;99346.09;;;24.95;40.13
9893;BME280;4985;49.092;8.542;2022-08-01T00:43:46;99347.09;;;24.89;40.30
9893;BME280;4985;49.092;8.542;2022-08-01T00:46:14;99346.00;;;24.85;40.42
9893;BME280;4985;49.092;8.542;2022-08-01T00:48:41;99341.59;;;24.79;40.57
9893;BME280;4985;49.092;8.542;2022-08-01T00:51:08;99344.38;;;24.84;40.55
9893;BME280;4985;49.092;8.542;2022-08-01T00:53:35;99350.75;;;24.78;40.68
9893;BME280;4985;49.092;8.542;2022-08-01T00:56:02;99344.41;;;24.62;41.11
9893;BME280;4985;49.092;8.542;2022-08-01T00:58:29;99343.09;;;24.65;41.14
9893;BME280;4985;49.092;8.542;2022-08-01T01:00:57;99344.72;;;24.66;41.18
9893;BME280;4985;49.092;8.542;2022-08-01T01:03:25;99342.91;;;24.72;41.08
9893;BME280;4985;49.092;8.542;2022-08-01T01:05:58;99342.38;;;24.75;41.07
9893;BME280;4985;49.092;8.542;2022-08-01T01:08:33;99341.84;;;24.73;41.13
9893;BME280;4985;49.092;8.542;2022-08-01T01:11:05;99337.34;;;24.56;41.55
9893;BME280;4985;49.092;8.542;2022-08-01T01:13:37;99349.38;;;24.49;41.70
9893;BME280;4985;49.092;8.542;2022-08-01T01:16:10;99349.88;;;24.46;41.87
9893;BME280;4985;49.092;8.542;2022-08-01T01:18:43;99354.00;;;24.53;41.75
9893;BME280;4985;49.092;8.542;2022-08-01T01:21:29;99350.69;;;24.46;41.96
9893;BME280;4985;49.092;8.542;2022-08-01T01:24:07;99354.91;;;24.37;42.16
9893;BME280;4985;49.092;8.542;2022-08-01T01:26:43;99352.78;;;24.39;42.20
9893;BME280;4985;49.092;8.542;2022-08-01T01:29:16;99351.44;;;24.42;42.09
9893;BME280;4985;49.092;8.542;2022-08-01T01:31:46;99352.94;;;24.32;42.31
9893;BME280;4985;49.092;8.542;2022-08-01T01:34:15;99359.75;;;24.18;42.60
9893;BME280;4985;49.092;8.542;2022-08-01T01:36:43;99352.19;;;24.15;42.76
9893;BME280;4985;49.092;8.542;2022-08-01T01:39:13;99350.47;;;24.09;42.78
9893;BME280;4985;49.092;8.542;2022-08-01T01:41:41;99361.88;;;24.16;42.72
9893;BME280;4985;49.092;8.542;2022-08-01T01:44:10;99364.19;;;24.07;42.90
9893;BME280;4985;49.092;8.542;2022-08-01T01:46:40;99368.34;;;23.98;43.20
9893;BME280;4985;49.092;8.542;2022-08-01T01:49:08;99367.41;;;23.88;43.54
9893;BME280;4985;49.092;8.542;2022-08-01T01:51:37;99361.41;;;23.80;43.81
9893;BME280;4985;49.092;8.542;2022-08-01T01:54:05;99362.69;;;23.78;43.94
9893;BME280;4985;49.092;8.542;2022-08-01T01:56:33;99361.16;;;23.82;43.92
9893;BME280;4985;49.092;8.542;2022-08-01T01:59:15;99364.09;;;23.80;44.00
9893;BME280;4985;49.092;8.542;2022-08-01T02:01:47;99357.50;;;23.71;44.15
9893;BME280;4985;49.092;8.542;2022-08-01T02:04:14;99358.88;;;23.91;43.81
9893;BME280;4985;49.092;8.542;2022-08-01T02:06:43;99364.81;;;23.93;43.81
9893;BME280;4985;49.092;8.542;2022-08-01T02:09:11;99366.28;;;23.84;44.06
9893;BME280;4985;49.092;8.542;2022-08-01T02:11:38;99364.66;;;23.83;44.11
9893;BME280;4985;49.092;8.542;2022-08-01T02:14:06;99365.62;;;23.76;44.32
9893;BME280;4985;49.092;8.542;2022-08-01T02:16:36;99369.37;;;23.75;44.41
9893;BME280;4985;49.092;8.542;2022-08-01T02:19:04;99373.22;;;23.79;44.35
9893;BME280;4985;49.092;8.542;2022-08-01T02:21:35;99369.94;;;23.77;44.38
9893;BME280;4985;49.092;8.542;2022-08-01T02:24:09;99370.38;;;23.69;44.63
9893;BME280;4985;49.092;8.542;2022-08-01T02:26:39;99374.94;;;23.69;44.68
9893;BME280;4985;49.092;8.542;2022-08-01T02:29:10;99375.59;;;23.59;44.96
9893;BME280;4985;49.092;8.542;2022-08-01T02:31:39;99377.09;;;23.55;45.03
9893;BME280;4985;49.092;8.542;2022-08-01T02:34:13;99378.66;;;23.51;45.17
9893;BME280;4985;49.092;8.542;2022-08-01T02:36:43;99376.53;;;23.53;45.07
9893;BME280;4985;49.092;8.542;2022-08-01T02:39:13;99378.16;;;23.54;45.06
9893;BME280;4985;49.092;8.542;2022-08-01T02:41:43;99378.09;;;23.49;45.14
9893;BME280;4985;49.092;8.542;2022-08-01T02:44:15;99383.47;;;23.49;45.17
9893;BME280;4985;49.092;8.542;2022-08-01T02:46:47;99373.03;;;23.52;45.11
9893;BME280;4985;49.092;8.542;2022-08-01T02:49:17;99377.47;;;23.59;44.97
9893;BME280;4985;49.092;8.542;2022-08-01T02:51:47;99364.34;;;23.45;45.12
9893;BME280;4985;49.092;8.542;2022-08-01T02:54:15;99369.72;;;23.45;45.23
9893;BME280;4985;49.092;8.542;2022-08-01T02:56:44;99373.28;;;23.51;45.22
9893;BME280;4985;49.092;8.542;2022-08-01T02:59:13;99379.16;;;23.48;45.25
9893;BME280;4985;49.092;8.542;2022-08-01T03:01:41;99373.12;;;23.41;45.37
9893;BME280;4985;49.092;8.542;2022-08-01T03:04:10;99367.94;;;23.34;45.72
9893;BME280;4985;49.092;8.542;2022-08-01T03:06:39;99369.41;;;23.25;45.92
9893;BME280;4985;49.092;8.542;2022-08-01T03:09:07;99372.16;;;23.30;45.87
9893;BME280;4985;49.092;8.542;2022-08-01T03:11:37;99370.53;;;23.29;45.90
9893;BME280;4985;49.092;8.542;2022-08-01T03:14:07;99365.34;;;23.22;46.02
9893;BME280;4985;49.092;8.542;2022-08-01T03:16:38;99369.06;;;23.21;46.13
9893;BME280;4985;49.092;8.542;2022-08-01T03:19:07;99360.03;;;23.28;46.01
9893;BME280;4985;49.092;8.542;2022-08-01T03:21:35;99368.59;;;23.24;46.05
9893;BME280;4985;49.092;8.542;2022-08-01T03:24:06;99365.22;;;23.17;46.32
9893;BME280;4985;49.092;8.542;2022-08-01T03:26:36;99359.88;;;23.17;46.41
9893;BME280;4985;49.092;8.542;2022-08-01T03:29:05;99371.34;;;23.13;46.61
9893;BME280;4985;49.092;8.542;2022-08-01T03:31:34;99374.34;;;23.16;46.52
9893;BME280;4985;49.092;8.542;2022-08-01T03:34:02;99374.03;;;23.13;46.62
9893;BME280;4985;49.092;8.542;2022-08-01T03:36:29;99367.75;;;23.07;46.74
9893;BME280;4985;49.092;8.542;2022-08-01T03:38:59;99376.84;;;23.06;46.88
9893;BME280;4985;49.092;8.542;2022-08-01T03:41:33;99384.91;;;23.06;46.94
9893;BME280;4985;49.092;8.542;2022-08-01T03:44:03;99379.12;;;22.98;47.26
9893;BME280;4985;49.092;8.542;2022-08-01T03:46:35;99381.91;;;23.03;47.24
9893;BME280;4985;49.092;8.542;2022-08-01T03:49:07;99376.97;;;23.11;47.00
9893;BME280;4985;49.092;8.542;2022-08-01T03:51:35;99383.16;;;23.29;46.59
9893;BME280;4985;49.092;8.542;2022-08-01T03:54:04;99373.22;;;23.46;46.14
9893;BME280;4985;49.092;8.542;2022-08-01T03:56:33;99366.47;;;23.60;45.84
9893;BME280;4985;49.092;8.542;2022-08-01T03:59:01;99362.06;;;23.71;45.58
9893;BME280;4985;49.092;8.542;2022-08-01T04:01:28;99364.56;;;23.77;45.54
9893;BME280;4985;49.092;8.542;2022-08-01T04:03:58;99366.94;;;23.74;45.57
9893;BME280;4985;49.092;8.542;2022-08-01T04:06:25;99370.06;;;23.66;45.63
9893;BME280;4985;49.092;8.542;2022-08-01T04:08:51;99365.97;;;23.63;45.70
9893;BME280;4985;49.092;8.542;2022-08-01T04:11:25;99372.97;;;23.64;45.71
9893;BME280;4985;49.092;8.542;2022-08-01T04:13:54;99368.44;;;23.65;45.62
9893;BME280;4985;49.092;8.542;2022-08-01T04:16:21;99374.78;;;23.59;45.78
9893;BME280;4985;49.092;8.542;2022-08-01T04:18:48;99378.84;;;23.61;45.77
9893;BME280;4985;49.092;8.542;2022-08-01T04:21:17;99382.09;;;23.63;45.73
9893;BME280;4985;49.092;8.542;2022-08-01T04:23:45;99380.16;;;23.59;45.80
9893;BME280;4985;49.092;8.542;2022-08-01T04:26:14;99370.09;;;23.54;45.89
9893;BME280;4985;49.092;8.542;2022-08-01T04:28:42;99377.22;;;23.60;45.85
9893;BME280;4985;49.092;8.542;2022-08-01T04:31:12;99380.50;;;23.62;45.84
9893;BME280;4985;49.092;8.542;2022-08-01T04:33:46;99376.66;;;23.58;45.92
9893;BME280;4985;49.092;8.542;2022-08-01T04:36:17;99388.09;;;23.53;46.00
9893;BME280;4985;49.092;8.542;2022-08-01T04:38:48;99395.91;;;23.55;46.03
9893;BME280;4985;49.092;8.542;2022-08-01T04:41:17;99387.62;;;23.57;46.06
9893;BME280;4985;49.092;8.542;2022-08-01T04:43:45;99392.53;;;23.60;45.99
9893;BME280;4985;49.092;8.542;2022-08-01T04:46:14;99396.28;;;23.59;45.99
9893;BME280;4985;49.092;8.542;2022-08-01T04:48:43;99385.09;;;23.50;46.27
9893;BME280;4985;49.092;8.542;2022-08-01T04:51:12;99392.50;;;23.43;46.45
9893;BME280;4985;49.092;8.542;2022-08-01T04:53:40;99392.34;;;23.49;46.36
9893;BME280;4985;49.092;8.542;2022-08-01T04:56:07;99389.34;;;23.46;46.48
9893;BME280;4985;49.092;8.542;2022-08-01T04:58:33;99395.53;;;23.46;46.50
9893;BME280;4985;49.092;8.542;2022-08-01T05:01:00;99402.34;;;23.54;46.39
9893;BME280;4985;49.092;8.542;2022-08-01T05:03:28;99406.53;;;23.62;46.61
9893;BME280;4985;49.092;8.542;2022-08-01T05:05:55;99402.78;;;23.63;46.60
9893;BME280;4985;49.092;8.542;2022-08-01T05:08:21;99400.09;;;23.63;46.69
9893;BME280;4985;49.092;8.542;2022-08-01T05:10:48;99398.53;;;23.67;46.71
9893;BME280;4985;49.092;8.542;2022-08-01T05:13:14;99399.94;;;23.69;46.65
9893;BME280;4985;49.092;8.542;2022-08-01T05:15:41;99397.25;;;23.69;46.74
9893;BME280;4985;49.092;8.542;2022-08-01T05:18:08;99403.19;;;23.71;46.63
9893;BME280;4985;49.092;8.542;2022-08-01T05:20:36;99392.44;;;23.71;46.72
9893;BME280;4985;49.092;8.542;2022-08-01T05:23:03;99405.91;;;23.71;46.69
9893;BME280;4985;49.092;8.542;2022-08-01T05:25:30;99401.00;;;23.68;46.82
9893;BME280;4985;49.092;8.542;2022-08-01T05:27:56;99401.00;;;23.68;46.76
9893;BME280;4985;49.092;8.542;2022-08-01T05:30:23;99409.62;;;23.70;46.63
9893;BME280;4985;49.092;8.542;2022-08-01T05:32:49;99407.53;;;23.72;46.40
9893;BME280;4985;49.092;8.542;2022-08-01T05:35:16;99404.56;;;23.74;46.11
9893;BME280;4985;49.092;8.542;2022-08-01T05:37:44;99403.25;;;23.76;45.90
9893;BME280;4985;49.092;8.542;2022-08-01T05:40:11;99404.88;;;23.77;45.67
9893;BME280;4985;49.092;8.542;2022-08-01T05:42:38;99402.78;;;23.79;45.49
9893;BME280;4985;49.092;8.542;2022-08-01T05:45:05;99401.72;;;23.80;45.46
9893;BME280;4985;49.092;8.542;2022-08-01T05:47:32;99407.66;;;23.83;45.26
9893;BME280;4985;49.092;8.542;2022-08-01T05:49:58;99404.72;;;23.84;45.16
9893;BME280;4985;49.092;8.542;2022-08-01T05:52:25;99402.84;;;23.85;45.01
9893;BME280;4985;49.092;8.542;2022-08-01T05:54:53;99402.59;;;23.86;45.00
9893;BME280;4985;49.092;8.542;2022-08-01T05:57:20;99415.78;;;23.88;44.99
9893;BME280;4985;49.092;8.542;2022-08-01T05:59:46;99414.72;;;23.89;44.85
9893;BME280;4985;49.092;8.542;2022-08-01T06:02:13;99421.75;;;23.90;44.78
9893;BME280;4985;49.092;8.542;2022-08-01T06:04:39;99414.50;;;23.90;44.81
9893;BME280;4985;49.092;8.542;2022-08-01T06:07:06;99415.31;;;23.91;44.72
9893;BME280;4985;49.092;8.542;2022-08-01T06:09:33;99416.13;;;23.91;44.71
9893;BME280;4985;49.092;8.542;2022-08-01T06:12:00;99415.06;;;23.92;44.73
9893;BME280;4985;49.092;8.542;2022-08-01T06:14:28;99415.88;;;23.93;44.73
9893;BME280;4985;49.092;8.542;2022-08-01T06:16:55;99416.44;;;23.95;44.70
9893;BME280;4985;49.092;8.542;2022-08-01T06:19:21;99418.88;;;23.96;44.60
9893;BME280;4985;49.092;8.542;2022-08-01T06:21:48;99426.12;;;23.96;44.58
9893;BME280;4985;49.092;8.542;2022-08-01T06:24:14;99423.44;;;23.96;44.66
9893;BME280;4985;49.092;8.542;2022-08-01T06:26:41;99418.06;;;23.96;44.67
9893;BME280;4985;49.092;8.542;2022-08-01T06:29:09;99420.75;;;23.96;44.68
9893;BME280;4985;49.092;8.542;2022-08-01T06:31:36;99422.37;;;23.97;44.65
9893;BME280;4985;49.092;8.542;2022-08-01T06:34:02;99417.00;;;23.97;44.60
9893;BME280;4985;49.092;8.542;2022-08-01T06:36:29;99417.31;;;24.00;44.59
9893;BME280;4985;49.092;8.542;2022-08-01T06:38:56;99413.81;;;24.00;44.61
9893;BME280;4985;49.092;8.542;2022-08-01T06:41:22;99417.91;;;24.02;44.93
9893;BME280;4985;49.092;8.542;2022-08-01T06:43:49;99419.78;;;24.02;44.72
9893;BME280;4985;49.092;8.542;2022-08-01T06:46:17;99413.34;;;24.03;44.64
9893;BME280;4985;49.092;8.542;2022-08-01T06:48:43;99421.66;;;24.01;44.83
9893;BME280;4985;49.092;8.542;2022-08-01T06:51:10;99419.53;;;24.03;45.29
9893;BME280;4985;49.092;8.542;2022-08-01T06:53:40;99427.34;;;24.05;45.73
9893;BME280;4985;49.092;8.542;2022-08-01T06:56:07;99431.91;;;24.04;45.90
9893;BME280;4985;49.092;8.542;2022-08-01T06:58:34;99435.41;;;24.05;45.98
9893;BME280;4985;49.092;8.542;2022-08-01T07:01:02;99435.41;;;24.05;46.23
9893;BME280;4985;49.092;8.542;2022-08-01T07:03:32;99428.41;;;24.04;45.75
9893;BME280;4985;49.092;8.542;2022-08-01T07:05:59;99423.09;;;24.09;45.73
9893;BME280;4985;49.092;8.542;2022-08-01T07:08:25;99433.84;;;24.09;45.87
9893;BME280;4985;49.092;8.542;2022-08-01T07:10:52;99427.41;;;24.10;45.57
9893;BME280;4985;49.092;8.542;2022-08-01T07:13:18;99419.91;;;24.12;46.20
9893;BME280;4985;49.092;8.542;2022-08-01T07:15:50;99418.06;;;24.13;45.68
9893;BME280;4985;49.092;8.542;2022-08-01T07:18:17;99420.50;;;24.14;45.64
9893;BME280;4985;49.092;8.542;2022-08-01T07:20:45;99422.94;;;24.16;45.35
9893;BME280;4985;49.092;8.542;2022-08-01T07:23:12;99423.75;;;24.16;45.60
9893;BME280;4985;49.092;8.542;2022-08-01T07:25:39;99420.00;;;24.17;45.28
9893;BME280;4985;49.092;8.542;2022-08-01T07:28:05;99427.00;;;24.18;45.54
9893;BME280;4985;49.092;8.542;2022-08-01T07:30:32;99427.00;;;24.18;45.12
9893;BME280;4985;49.092;8.542;2022-08-01T07:32:59;99425.69;;;24.21;45.19
9893;BME280;4985;49.092;8.542;2022-08-01T07:35:26;99432.69;;;24.22;45.27
9893;BME280;4985;49.092;8.542;2022-08-01T07:37:54;99425.69;;;24.21;45.05
9893;BME280;4985;49.092;8.542;2022-08-01T07:40:20;99431.88;;;24.21;45.06
9893;BME280;4985;49.092;8.542;2022-08-01T07:42:47;99424.34;;;24.23;45.39
9893;BME280;4985;49.092;8.542;2022-08-01T07:45:14;99424.94;;;24.25;45.52
9893;BME280;4985;49.092;8.542;2022-08-01T07:47:41;99422.50;;;24.24;45.12
9893;BME280;4985;49.092;8.542;2022-08-01T07:50:08;99422.25;;;24.25;44.98
9893;BME280;4985;49.092;8.542;2022-08-01T07:52:34;99425.50;;;24.27;44.94
9893;BME280;4985;49.092;8.542;2022-08-01T07:55:03;99421.19;;;24.26;44.93
9893;BME280;4985;49.092;8.542;2022-08-01T07:57:30;99414.75;;;24.27;44.90
9893;BME280;4985;49.092;8.542;2022-08-01T07:59:56;99420.38;;;24.26;44.90
9893;BME280;4985;49.092;8.542;2022-08-01T08:02:23;99426.06;;;24.29;44.89
9893;BME280;4985;49.092;8.542;2022-08-01T08:04:49;99419.66;;;24.30;44.86
9893;BME280;4985;49.092;8.542;2022-08-01T08:07:16;99416.13;;;24.30;44.84
9893;BME280;4985;49.092;8.542;2022-08-01T08:09:43;99415.91;;;24.31;45.06
9893;BME280;4985;49.092;8.542;2022-08-01T08:12:11;99410.00;;;24.34;45.22
9893;BME280;4985;49.092;8.542;2022-08-01T08:14:37;99417.53;;;24.32;44.95
9893;BME280;4985;49.092;8.542;2022-08-01T08:17:05;99403.81;;;24.34;44.90
9893;BME280;4985;49.092;8.542;2022-08-01T08:19:31;99398.44;;;24.34;44.91
9893;BME280;4985;49.092;8.542;2022-08-01T08:21:58;99402.75;;;24.35;44.81
9893;BME280;4985;49.092;8.542;2022-08-01T08:24:25;99402.53;;;24.36;44.76
9893;BME280;4985;49.092;8.542;2022-08-01T08:26:54;99409.53;;;24.37;44.84
9893;BME280;4985;49.092;8.542;2022-08-01T08:29:23;99404.97;;;24.38;44.73
9893;BME280;4985;49.092;8.542;2022-08-01T08:31:52;99403.09;;;24.38;44.71
9893;BME280;4985;49.092;8.542;2022-08-01T08:34:19;99395.81;;;24.39;44.68
9893;BME280;4985;49.092;8.542;2022-08-01T08:36:45;99406.06;;;24.42;44.70
9893;BME280;4985;49.092;8.542;2022-08-01T08:39:12;99396.12;;;24.43;44.81
9893;BME280;4985;49.092;8.542;2022-08-01T08:41:38;99396.12;;;24.43;44.71
9893;BME280;4985;49.092;8.542;2022-08-01T08:44:07;99399.37;;;24.45;44.68
9893;BME280;4985;49.092;8.542;2022-08-01T08:46:40;99399.37;;;24.45;44.62
9893;BME280;4985;49.092;8.542;2022-08-01T08:49:08;99391.31;;;24.45;44.61
9893;BME280;4985;49.092;8.542;2022-08-01T08:51:38;99398.91;;;24.48;44.69
9893;BME280;4985;49.092;8.542;2022-08-01T08:54:06;99396.44;;;24.46;44.63
9893;BME280;4985;49.092;8.542;2022-08-01T08:56:34;99404.28;;;24.48;44.55
9893;BME280;4985;49.092;8.542;2022-08-01T08:59:02;99395.94;;;24.49;44.66
9893;BME280;4985;49.092;8.542;2022-08-01T09:01:30;99398.91;;;24.48;44.61
9893;BME280;4985;49.092;8.542;2022-08-01T09:03:59;99393.00;;;24.51;44.92
9893;BME280;4985;49.092;8.542;2022-08-01T09:06:25;99398.37;;;24.51;44.83
9893;BME280;4985;49.092;8.542;2022-08-01T09:08:53;99395.69;;;24.51;44.74
9893;BME280;4985;49.092;8.542;2022-08-01T09:11:20;99400.81;;;24.52;44.84
9893;BME280;4985;49.092;8.542;2022-08-01T09:14:01;99403.25;;;24.54;44.63
9893;BME280;4985;49.092;8.542;2022-08-01T09:16:29;99401.38;;;24.54;44.51
9893;BME280;4985;49.092;8.542;2022-08-01T09:19:08;99404.63;;;24.56;44.48
9893;BME280;4985;49.092;8.542;2022-08-01T09:21:35;99406.03;;;24.59;44.52
9893;BME280;4985;49.092;8.542;2022-08-01T09:24:03;99406.03;;;24.59;44.49
9893;BME280;4985;49.092;8.542;2022-08-01T09:26:32;99409.53;;;24.59;44.54
9893;BME280;4985;49.092;8.542;2022-08-01T09:29:00;99407.66;;;24.60;44.46
9893;BME280;4985;49.092;8.542;2022-08-01T09:31:28;99409.25;;;24.61;44.40
9893;BME280;4985;49.092;8.542;2022-08-01T09:33:56;99405.50;;;24.62;44.38
9893;BME280;4985;49.092;8.542;2022-08-01T09:36:25;99406.31;;;24.62;44.39
9893;BME280;4985;49.092;8.542;2022-08-01T09:38:54;99406.06;;;24.64;44.34
9893;BME280;4985;49.092;8.542;2022-08-01T09:41:28;99406.06;;;24.64;44.41
9893;BME280;4985;49.092;8.542;2022-08-01T09:43:55;99410.38;;;24.65;44.33
9893;BME280;4985;49.092;8.542;2022-08-01T09:46:22;99403.38;;;24.64;44.35
9893;BME280;4985;49.092;8.542;2022-08-01T09:48:59;99405.81;;;24.65;44.26
9893;BME280;4985;49.092;8.542;2022-08-01T09:51:35;99403.94;;;24.66;44.30
9893;BME280;4985;49.092;8.542;2022-08-01T09:54:03;99409.06;;;24.67;44.27
9893;BME280;4985;49.092;8.542;2022-08-01T09:56:37;99405.28;;;24.68;44.32
9893;BME280;4985;49.092;8.542;2022-08-01T09:59:04;99403.19;;;24.71;44.39
9893;BME280;4985;49.092;8.542;2022-08-01T10:01:43;99413.16;;;24.70;44.25
9893;BME280;4985;49.092;8.542;2022-08-01T10:04:12;99405.87;;;24.71;44.35
9893;BME280;4985;49.092;8.542;2022-08-01T10:06:42;99411.56;;;24.74;44.32
9893;BME280;4985;49.092;8.542;2022-08-01T10:09:10;99400.25;;;24.72;44.39
9893;BME280;4985;49.092;8.542;2022-08-01T10:11:38;99403.50;;;24.74;44.25
9893;BME280;4985;49.092;8.542;2022-08-01T10:14:05;99400.78;;;24.74;44.35
9893;BME280;4985;49.092;8.542;2022-08-01T10:16:34;99395.41;;;24.74;44.33
9893;BME280;4985;49.092;8.542;2022-08-01T10:19:02;99402.97;;;24.77;44.21
9893;BME280;4985;49.092;8.542;2022-08-01T10:21:32;99395.97;;;24.76;44.19
9893;BME280;4985;49.092;8.542;2022-08-01T10:24:02;99403.53;;;24.79;44.16
9893;BME280;4985;49.092;8.542;2022-08-01T10:26:32;99404.13;;;24.81;44.15
9893;BME280;4985;49.092;8.542;2022-08-01T10:28:59;99395.22;;;24.81;44.13
9893;BME280;4985;49.092;8.542;2022-08-01T10:31:27;99400.34;;;24.82;43.98
9893;BME280;4985;49.092;8.542;2022-08-01T10:33:58;99399.28;;;24.83;44.13
9893;BME280;4985;49.092;8.542;2022-08-01T10:36:25;99394.72;;;24.84;44.12
9893;BME280;4985;49.092;8.542;2022-08-01T10:38:52;99388.25;;;24.85;44.15
9893;BME280;4985;49.092;8.542;2022-08-01T10:41:21;99393.38;;;24.86;44.13
9893;BME280;4985;49.092;8.542;2022-08-01T10:43:48;99383.69;;;24.85;44.16
9893;BME280;4985;49.092;8.542;2022-08-01T10:46:14;99391.75;;;24.85;43.99
9893;BME280;4985;49.092;8.542;2022-08-01T10:48:47;99393.13;;;24.88;44.29
9893;BME280;4985;49.092;8.542;2022-08-01T10:51:16;99386.41;;;24.90;44.39
9893;BME280;4985;49.092;8.542;2022-08-01T10:53:50;99381.03;;;24.90;44.07
9893;BME280;4985;49.092;8.542;2022-08-01T10:56:17;99380.22;;;24.90;44.11
9893;BME280;4985;49.092;8.542;2022-08-01T10:58:46;99384.53;;;24.91;44.27
9893;BME280;4985;49.092;8.542;2022-08-01T11:01:15;99381.84;;;24.91;44.06
9893;BME280;4985;49.092;8.542;2022-08-01T11:03:44;99379.72;;;24.93;43.98
9893;BME280;4985;49.092;8.542;2022-08-01T11:06:16;99370.78;;;24.87;43.96
9893;BME280;4985;49.092;8.542;2022-08-01T11:08:50;99386.75;;;24.94;44.04
9893;BME280;4985;49.092;8.542;2022-08-01T11:11:18;99376.78;;;24.94;43.97
9893;BME280;4985;49.092;8.542;2022-08-01T11:14:02;99381.91;;;24.96;44.03
9893;BME280;4985;49.092;8.542;2022-08-01T11:16:34;99370.88;;;24.97;44.00
9893;BME280;4985;49.092;8.542;2022-08-01T11:19:02;99371.69;;;24.98;44.17
9893;BME280;4985;49.092;8.542;2022-08-01T11:21:59;99370.63;;;24.99;44.10
9893;BME280;4985;49.092;8.542;2022-08-01T11:24:56;99367.66;;;25.01;44.19
9893;BME280;4985;49.092;8.542;2022-08-01T11:27:26;99363.13;;;25.01;44.13
9893;BME280;4985;49.092;8.542;2022-08-01T11:30:22;99357.75;;;25.01;44.06
9893;BME280;4985;49.092;8.542;2022-08-01T11:32:52;99361.25;;;25.02;44.04
9893;BME280;4985;49.092;8.542;2022-08-01T11:35:19;99362.06;;;25.02;43.98
9893;BME280;4985;49.092;8.542;2022-08-01T11:37:46;99360.75;;;25.05;44.03
9893;BME280;4985;49.092;8.542;2022-08-01T11:40:19;99357.00;;;25.06;43.98
9893;BME280;4985;49.092;8.542;2022-08-01T11:42:46;99348.91;;;25.06;43.93
9893;BME280;4985;49.092;8.542;2022-08-01T11:45:13;99351.09;;;25.09;44.08
9893;BME280;4985;49.092;8.542;2022-08-01T11:47:46;99346.25;;;25.11;43.93
9893;BME280;4985;49.092;8.542;2022-08-01T11:50:32;99335.47;;;25.11;43.93
9893;BME280;4985;49.092;8.542;2022-08-01T11:53:00;99329.28;;;25.10;44.02
9893;BME280;4985;49.092;8.542;2022-08-01T11:55:28;99336.81;;;25.13;43.98
9893;BME280;4985;49.092;8.542;2022-08-01T11:58:02;99341.97;;;25.15;43.92
9893;BME280;4985;49.092;8.542;2022-08-01T12:00:29;99340.91;;;25.16;43.89
9893;BME280;4985;49.092;8.542;2022-08-01T12:02:59;99336.34;;;25.16;44.10
9893;BME280;4985;49.092;8.542;2022-08-01T12:05:26;99349.53;;;25.18;44.17
9893;BME280;4985;49.092;8.542;2022-08-01T12:07:54;99339.59;;;25.18;43.99
9893;BME280;4985;49.092;8.542;2022-08-01T12:10:22;99331.25;;;25.20;43.99
9893;BME280;4985;49.092;8.542;2022-08-01T12:12:51;99331.50;;;25.18;43.81
9893;BME280;4985;49.092;8.542;2022-08-01T12:15:20;99331.53;;;25.23;43.89
9893;BME280;4985;49.092;8.542;2022-08-01T12:17:48;99323.19;;;25.25;43.90
9893;BME280;4985;49.092;8.542;2022-08-01T12:20:20;99324.25;;;25.24;43.95
9893;BME280;4985;49.092;8.542;2022-08-01T12:22:47;99320.50;;;25.25;43.85
9893;BME280;4985;49.092;8.542;2022-08-01T12:25:16;99320.50;;;25.25;43.91
9893;BME280;4985;49.092;8.542;2022-08-01T12:27:45;99322.69;;;25.28;43.82
9893;BME280;4985;49.092;8.542;2022-08-01T12:30:14;99318.91;;;25.29;43.81
9893;BME280;4985;49.092;8.542;2022-08-01T12:32:42;99319.47;;;25.31;43.91
9893;BME280;4985;49.092;8.542;2022-08-01T12:35:10;99324.84;;;25.31;43.76
9893;BME280;4985;49.092;8.542;2022-08-01T12:37:39;99321.09;;;25.32;43.82
9893;BME280;4985;49.092;8.542;2022-08-01T12:40:11;99318.94;;;25.34;43.78
9893;BME280;4985;49.092;8.542;2022-08-01T12:42:39;99314.09;;;25.36;43.81
9893;BME280;4985;49.092;8.542;2022-08-01T12:45:08;99311.41;;;25.36;43.70
9893;BME280;4985;49.092;8.542;2022-08-01T12:47:35;99306.59;;;25.38;43.85
9893;BME280;4985;49.092;8.542;2022-08-01T12:50:04;99313.59;;;25.39;43.70
9893;BME280;4985;49.092;8.542;2022-08-01T12:52:31;99314.16;;;25.41;43.71
9893;BME280;4985;49.092;8.542;2022-08-01T12:55:11;99311.47;;;25.41;43.65
9893;BME280;4985;49.092;8.542;2022-08-01T12:57:39;99310.38;;;25.42;43.68
9893;BME280;4985;49.092;8.542;2022-08-01T13:00:12;99309.06;;;25.45;43.62
9893;BME280;4985;49.092;8.542;2022-08-01T13:02:40;99305.00;;;25.47;43.56
9893;BME280;4985;49.092;8.542;2022-08-01T13:05:08;99303.97;;;25.48;43.49
9893;BME280;4985;49.092;8.542;2022-08-01T13:07:37;99305.31;;;25.51;43.58
9893;BME280;4985;49.092;8.542;2022-08-01T13:10:06;99300.19;;;25.49;43.51
9893;BME280;4985;49.092;8.542;2022-08-01T13:12:33;99308.31;;;25.54;43.59
9893;BME280;4985;49.092;8.542;2022-08-01T13:15:21;99300.75;;;25.57;43.56
9893;BME280;4985;49.092;8.542;2022-08-01T13:17:49;99307.78;;;25.58;43.50
9893;BME280;4985;49.092;8.542;2022-08-01T13:20:23;99298.63;;;25.59;43.42
9893;BME280;4985;49.092;8.542;2022-08-01T13:22:50;99298.38;;;25.60;43.47
9893;BME280;4985;49.092;8.542;2022-08-01T13:25:19;99297.31;;;25.61;43.43
9893;BME280;4985;49.092;8.542;2022-08-01T13:27:46;99299.72;;;25.63;43.54
9893;BME280;4985;49.092;8.542;2022-08-01T13:30:14;99302.97;;;25.65;43.70
9893;BME280;4985;49.092;8.542;2022-08-01T13:32:41;99296.50;;;25.66;43.52